Terminal Aerodrome Forecast
Issued by NWS

Home | Current Version | Previous Version | Text Only | Print | Product List | Glossary On
Versions: 1 2 3 4 5 6 7 8 9 10 11 12 13 14 15 16 17 18 19
000
FTUS41 KCLE 050900 AAA
TAFFDY
TAF AMD
KFDY 050943Z 0510/0606 22007KT 4SM BR SCT050 OVC100
     FM051100 VRB05KT 6SM -SHRA BKN045 OVC070
     FM051300 20008KT P6SM BKN050 OVC080
     FM052300 07007KT P6SM SCT035 BKN120=

USA.gov is the U.S. government's official web portal to all federal, state and local government web resources and services.